Terminal Aerodrome Forecast
Issued by NWS

Home | Current Version | Previous Version | Text Only | Print | Product List | Glossary On
Versions: 1 2 3 4 5 6 7 8 9 10 11 12 13 14 15 16 17
609
FTUS43 KDLH 081428 AAA
TAFBRD
TAF AMD
KBRD 081428Z 0814/0912 32014G20KT P6SM VCSH OVC021
     FM081800 32014G20KT P6SM OVC015
     FM090100 30012KT P6SM OVC025=

USA.gov is the U.S. government's official web portal to all federal, state and local government web resources and services.